LPPR/OPO METAR and TAF weather

Enter ICAO airport designator
Station Type Date Time Source
LPPR METAR 2024/04/18 07:30 UTC NOAA

LPPR 180730Z 08009KT CAVOK 17/06 Q1015


Station Type Date Time Source
LPPR Decoded METAR 2024/04/18 07:30 UTC NOAA

Porto / Pedras Rubras, Portugal (LPPR) 41-14N 008-41W 77M
Apr 18, 2024 - 03:30 AM EDT / 2024.04.18 0730 UTC
Wind: from the E (080 degrees) at 10 MPH (9 KT):0
Visibility: greater than 7 mile(s):0
Temperature: 62 F (17 C)
Dew Point: 42 F (6 C)
Relative Humidity: 48%
Pressure (altimeter): 29.97 in. Hg (1015 hPa)
ob: LPPR 180730Z 08009KT CAVOK 17/06 Q1015
cycle: 7

Station Type Date Time Source
LPPR TAF 2024/04/18 18:18 UTC NOAA